Huvudsida
METAR-TAF:

METAR-TAF

Flygplatser :

Payam International Airport

Karaj, Iran

latitud: 35-46-34N, longitud: 050-49-36E, höjd: 1271 m

Aktuellt väderrapport

Denna rapport gjordes för 45 minuter sedan, klockan 03:00 UTC
Vind 10 kt från väst
Temperatur 0°C
Fuktighet 100%
Tryck 1017 hPa
Sikt: 1000 m
Spridda moln på en höjd av 3000 ft
Mulet på en höjd av 8000 ft
snö

METAR: OIIP 200300Z 28010KT 1000 SN SCT030 OVC080 00/00 Q1017 A3003

Tid: 07:15 (03:45 UTC)


TAF: saknas

Aktuella väderrapporter och prognoser från 4000 flygplatser (METAR- och TAF-rapporter).

De tillgängliga stationerna syns som gula och röda prickar på kartan.

För musen över prickarna för att se namnen på stationerna.

Klicka sedan för att få väderrapporter och prognoser.

För att ändra kartan: Klicka på de gröna knapparna med ett svart kors på för att zooma in; den gröna knappen med ett streck på för att zooma ut; eller på de gröna pilarna för angränsande kartor.


METAR-TAF: